sensor_id;sensor_type;location;lat;lon;timestamp;P1;durP1;ratioP1;P2;durP2;ratioP2
2053;SDS011;1032;52.542;13.440;2023-02-15T00:01:08;37.57;;;26.07;;
2053;SDS011;1032;52.542;13.440;2023-02-15T00:03:36;37.33;;;26.37;;
2053;SDS011;1032;52.542;13.440;2023-02-15T00:06:02;35.23;;;25.00;;
2053;SDS011;1032;52.542;13.440;2023-02-15T00:08:29;37.50;;;26.10;;
2053;SDS011;1032;52.542;13.440;2023-02-15T00:11:03;39.37;;;26.60;;
2053;SDS011;1032;52.542;13.440;2023-02-15T00:13:34;41.23;;;26.17;;
2053;SDS011;1032;52.542;13.440;2023-02-15T00:16:03;35.93;;;24.90;;
2053;SDS011;1032;52.542;13.440;2023-02-15T00:18:32;36.20;;;25.93;;
2053;SDS011;1032;52.542;13.440;2023-02-15T00:21:02;36.77;;;25.50;;
2053;SDS011;1032;52.542;13.440;2023-02-15T00:23:30;41.57;;;28.70;;
2053;SDS011;1032;52.542;13.440;2023-02-15T00:26:03;39.30;;;26.47;;
2053;SDS011;1032;52.542;13.440;2023-02-15T00:28:31;33.37;;;24.30;;
2053;SDS011;1032;52.542;13.440;2023-02-15T00:31:06;39.30;;;25.97;;
2053;SDS011;1032;52.542;13.440;2023-02-15T00:33:34;38.17;;;27.40;;
2053;SDS011;1032;52.542;13.440;2023-02-15T00:36:02;37.63;;;26.37;;
2053;SDS011;1032;52.542;13.440;2023-02-15T00:38:30;43.93;;;27.07;;
2053;SDS011;1032;52.542;13.440;2023-02-15T00:40:58;44.57;;;29.60;;
2053;SDS011;1032;52.542;13.440;2023-02-15T00:43:26;38.47;;;25.83;;
2053;SDS011;1032;52.542;13.440;2023-02-15T00:45:53;43.37;;;26.37;;
2053;SDS011;1032;52.542;13.440;2023-02-15T00:48:21;35.23;;;25.80;;
2053;SDS011;1032;52.542;13.440;2023-02-15T00:50:49;42.23;;;29.13;;
2053;SDS011;1032;52.542;13.440;2023-02-15T00:53:18;38.20;;;27.00;;
2053;SDS011;1032;52.542;13.440;2023-02-15T00:55:45;38.33;;;26.00;;
2053;SDS011;1032;52.542;13.440;2023-02-15T00:58:12;42.40;;;26.30;;
2053;SDS011;1032;52.542;13.440;2023-02-15T01:00:40;40.17;;;26.47;;
2053;SDS011;1032;52.542;13.440;2023-02-15T01:03:08;38.83;;;27.47;;
2053;SDS011;1032;52.542;13.440;2023-02-15T01:05:37;38.80;;;29.00;;
2053;SDS011;1032;52.542;13.440;2023-02-15T01:08:03;39.80;;;28.07;;
2053;SDS011;1032;52.542;13.440;2023-02-15T01:10:31;37.87;;;24.97;;
2053;SDS011;1032;52.542;13.440;2023-02-15T01:12:59;38.97;;;25.50;;
2053;SDS011;1032;52.542;13.440;2023-02-15T01:15:25;40.07;;;29.00;;
2053;SDS011;1032;52.542;13.440;2023-02-15T01:17:52;39.57;;;26.27;;
2053;SDS011;1032;52.542;13.440;2023-02-15T01:20:20;40.43;;;27.50;;
2053;SDS011;1032;52.542;13.440;2023-02-15T01:22:50;38.37;;;27.33;;
2053;SDS011;1032;52.542;13.440;2023-02-15T01:25:17;40.23;;;27.73;;
2053;SDS011;1032;52.542;13.440;2023-02-15T01:27:45;45.03;;;28.23;;
2053;SDS011;1032;52.542;13.440;2023-02-15T01:30:13;43.20;;;29.03;;
2053;SDS011;1032;52.542;13.440;2023-02-15T01:32:40;43.50;;;29.50;;
2053;SDS011;1032;52.542;13.440;2023-02-15T01:35:07;47.43;;;30.10;;
2053;SDS011;1032;52.542;13.440;2023-02-15T01:37:35;44.37;;;28.70;;
2053;SDS011;1032;52.542;13.440;2023-02-15T01:40:05;41.97;;;28.13;;
2053;SDS011;1032;52.542;13.440;2023-02-15T01:42:34;37.33;;;27.33;;
2053;SDS011;1032;52.542;13.440;2023-02-15T01:45:02;45.23;;;27.80;;
2053;SDS011;1032;52.542;13.440;2023-02-15T01:47:32;42.70;;;28.00;;
2053;SDS011;1032;52.542;13.440;2023-02-15T01:50:05;41.47;;;27.53;;
2053;SDS011;1032;52.542;13.440;2023-02-15T01:52:37;41.67;;;27.00;;
2053;SDS011;1032;52.542;13.440;2023-02-15T01:55:08;39.87;;;26.83;;
2053;SDS011;1032;52.542;13.440;2023-02-15T01:57:35;41.13;;;26.57;;
2053;SDS011;1032;52.542;13.440;2023-02-15T02:00:03;45.97;;;30.03;;
2053;SDS011;1032;52.542;13.440;2023-02-15T02:02:37;44.03;;;28.07;;
2053;SDS011;1032;52.542;13.440;2023-02-15T02:05:05;45.75;;;27.80;;
2053;SDS011;1032;52.542;13.440;2023-02-15T02:07:34;48.45;;;28.02;;
2053;SDS011;1032;52.542;13.440;2023-02-15T02:10:04;42.35;;;27.65;;
2053;SDS011;1032;52.542;13.440;2023-02-15T02:12:33;41.65;;;27.40;;
2053;SDS011;1032;52.542;13.440;2023-02-15T02:15:02;39.47;;;26.87;;
2053;SDS011;1032;52.542;13.440;2023-02-15T02:17:30;46.20;;;29.30;;
2053;SDS011;1032;52.542;13.440;2023-02-15T02:20:12;51.40;;;31.07;;
2053;SDS011;1032;52.542;13.440;2023-02-15T02:23:04;45.17;;;28.50;;
2053;SDS011;1032;52.542;13.440;2023-02-15T02:25:52;42.58;;;27.83;;
2053;SDS011;1032;52.542;13.440;2023-02-15T02:28:49;49.92;;;31.58;;
2053;SDS011;1032;52.542;13.440;2023-02-15T02:31:48;49.55;;;31.17;;
2053;SDS011;1032;52.542;13.440;2023-02-15T02:34:46;47.03;;;31.20;;
2053;SDS011;1032;52.542;13.440;2023-02-15T02:37:19;46.37;;;29.00;;
2053;SDS011;1032;52.542;13.440;2023-02-15T02:39:51;45.95;;;29.20;;
2053;SDS011;1032;52.542;13.440;2023-02-15T02:42:23;48.47;;;31.35;;
2053;SDS011;1032;52.542;13.440;2023-02-15T02:44:56;44.15;;;29.80;;
2053;SDS011;1032;52.542;13.440;2023-02-15T02:47:29;48.90;;;30.50;;
2053;SDS011;1032;52.542;13.440;2023-02-15T02:50:03;46.58;;;29.95;;
2053;SDS011;1032;52.542;13.440;2023-02-15T02:52:35;46.88;;;30.85;;
2053;SDS011;1032;52.542;13.440;2023-02-15T02:55:07;52.20;;;29.90;;
2053;SDS011;1032;52.542;13.440;2023-02-15T02:57:39;50.63;;;32.30;;
2053;SDS011;1032;52.542;13.440;2023-02-15T03:00:11;52.80;;;32.47;;
2053;SDS011;1032;52.542;13.440;2023-02-15T03:02:41;52.13;;;32.05;;
2053;SDS011;1032;52.542;13.440;2023-02-15T03:05:13;48.65;;;33.20;;
2053;SDS011;1032;52.542;13.440;2023-02-15T03:07:42;59.57;;;33.30;;
2053;SDS011;1032;52.542;13.440;2023-02-15T03:10:12;63.77;;;34.60;;
2053;SDS011;1032;52.542;13.440;2023-02-15T03:12:41;56.97;;;34.88;;
2053;SDS011;1032;52.542;13.440;2023-02-15T03:15:08;57.88;;;33.70;;
2053;SDS011;1032;52.542;13.440;2023-02-15T03:17:39;56.60;;;33.97;;
2053;SDS011;1032;52.542;13.440;2023-02-15T03:20:09;51.23;;;31.83;;
2053;SDS011;1032;52.542;13.440;2023-02-15T03:22:41;62.40;;;34.53;;
2053;SDS011;1032;52.542;13.440;2023-02-15T03:25:15;63.25;;;34.05;;
2053;SDS011;1032;52.542;13.440;2023-02-15T03:27:47;57.50;;;33.90;;
2053;SDS011;1032;52.542;13.440;2023-02-15T03:30:18;61.67;;;37.15;;
2053;SDS011;1032;52.542;13.440;2023-02-15T03:32:48;63.35;;;38.45;;
2053;SDS011;1032;52.542;13.440;2023-02-15T03:35:18;55.30;;;35.33;;
2053;SDS011;1032;52.542;13.440;2023-02-15T03:37:48;61.42;;;36.95;;
2053;SDS011;1032;52.542;13.440;2023-02-15T03:40:19;63.88;;;36.05;;
2053;SDS011;1032;52.542;13.440;2023-02-15T03:43:09;65.68;;;38.10;;
2053;SDS011;1032;52.542;13.440;2023-02-15T03:45:40;58.67;;;35.30;;
2053;SDS011;1032;52.542;13.440;2023-02-15T03:48:19;62.20;;;36.42;;
2053;SDS011;1032;52.542;13.440;2023-02-15T03:50:50;69.82;;;39.17;;
2053;SDS011;1032;52.542;13.440;2023-02-15T03:53:32;64.88;;;37.63;;
2053;SDS011;1032;52.542;13.440;2023-02-15T03:55:59;65.90;;;37.50;;
2053;SDS011;1032;52.542;13.440;2023-02-15T03:58:26;64.18;;;37.40;;
2053;SDS011;1032;52.542;13.440;2023-02-15T04:01:11;66.65;;;39.25;;
2053;SDS011;1032;52.542;13.440;2023-02-15T04:04:00;70.95;;;39.30;;
2053;SDS011;1032;52.542;13.440;2023-02-15T04:06:34;68.90;;;37.10;;
2053;SDS011;1032;52.542;13.440;2023-02-15T04:09:01;71.35;;;38.95;;
2053;SDS011;1032;52.542;13.440;2023-02-15T04:11:45;69.35;;;40.00;;
2053;SDS011;1032;52.542;13.440;2023-02-15T04:14:12;72.32;;;41.00;;
2053;SDS011;1032;52.542;13.440;2023-02-15T04:16:56;69.97;;;37.85;;
2053;SDS011;1032;52.542;13.440;2023-02-15T04:19:23;66.68;;;38.67;;
2053;SDS011;1032;52.542;13.440;2023-02-15T04:22:08;68.22;;;38.17;;
2053;SDS011;1032;52.542;13.440;2023-02-15T04:24:52;65.28;;;36.47;;
2053;SDS011;1032;52.542;13.440;2023-02-15T04:27:38;66.03;;;38.33;;
2053;SDS011;1032;52.542;13.440;2023-02-15T04:30:07;66.35;;;38.85;;
2053;SDS011;1032;52.542;13.440;2023-02-15T04:32:37;60.40;;;35.55;;
2053;SDS011;1032;52.542;13.440;2023-02-15T04:35:05;64.13;;;36.42;;
2053;SDS011;1032;52.542;13.440;2023-02-15T04:37:33;61.97;;;36.42;;
2053;SDS011;1032;52.542;13.440;2023-02-15T04:40:00;64.15;;;36.33;;
2053;SDS011;1032;52.542;13.440;2023-02-15T04:42:27;59.13;;;36.60;;
2053;SDS011;1032;52.542;13.440;2023-02-15T04:44:54;67.95;;;38.75;;
2053;SDS011;1032;52.542;13.440;2023-02-15T04:47:21;61.60;;;36.85;;
2053;SDS011;1032;52.542;13.440;2023-02-15T04:49:47;62.78;;;37.33;;
2053;SDS011;1032;52.542;13.440;2023-02-15T04:52:14;58.60;;;35.53;;
2053;SDS011;1032;52.542;13.440;2023-02-15T04:54:43;66.60;;;37.45;;
2053;SDS011;1032;52.542;13.440;2023-02-15T04:57:10;56.67;;;33.72;;
2053;SDS011;1032;52.542;13.440;2023-02-15T04:59:37;62.85;;;35.67;;
2053;SDS011;1032;52.542;13.440;2023-02-15T05:02:03;64.35;;;36.03;;
2053;SDS011;1032;52.542;13.440;2023-02-15T05:04:30;57.50;;;34.28;;
2053;SDS011;1032;52.542;13.440;2023-02-15T05:06:57;64.10;;;36.47;;
2053;SDS011;1032;52.542;13.440;2023-02-15T05:09:23;63.10;;;36.22;;
2053;SDS011;1032;52.542;13.440;2023-02-15T05:11:51;59.03;;;35.65;;
2053;SDS011;1032;52.542;13.440;2023-02-15T05:14:18;55.30;;;34.67;;
2053;SDS011;1032;52.542;13.440;2023-02-15T05:16:44;63.78;;;35.88;;
2053;SDS011;1032;52.542;13.440;2023-02-15T05:19:11;60.88;;;34.15;;
2053;SDS011;1032;52.542;13.440;2023-02-15T05:21:38;57.47;;;34.38;;
2053;SDS011;1032;52.542;13.440;2023-02-15T05:24:04;61.05;;;37.22;;
2053;SDS011;1032;52.542;13.440;2023-02-15T05:26:53;60.90;;;34.70;;
2053;SDS011;1032;52.542;13.440;2023-02-15T05:29:37;60.53;;;35.03;;
2053;SDS011;1032;52.542;13.440;2023-02-15T05:32:04;64.85;;;33.30;;
2053;SDS011;1032;52.542;13.440;2023-02-15T05:34:31;53.28;;;32.67;;
2053;SDS011;1032;52.542;13.440;2023-02-15T05:36:58;61.97;;;35.58;;
2053;SDS011;1032;52.542;13.440;2023-02-15T05:39:24;74.13;;;35.47;;
2053;SDS011;1032;52.542;13.440;2023-02-15T05:41:51;58.33;;;35.30;;
2053;SDS011;1032;52.542;13.440;2023-02-15T05:44:19;64.22;;;36.17;;
2053;SDS011;1032;52.542;13.440;2023-02-15T05:46:46;65.13;;;35.92;;
2053;SDS011;1032;52.542;13.440;2023-02-15T05:49:13;65.75;;;36.70;;
2053;SDS011;1032;52.542;13.440;2023-02-15T05:51:40;69.00;;;37.05;;
2053;SDS011;1032;52.542;13.440;2023-02-15T05:54:06;60.58;;;35.80;;
2053;SDS011;1032;52.542;13.440;2023-02-15T05:56:33;71.25;;;37.90;;
2053;SDS011;1032;52.542;13.440;2023-02-15T05:59:01;62.17;;;36.40;;
2053;SDS011;1032;52.542;13.440;2023-02-15T06:01:27;67.18;;;35.30;;
2053;SDS011;1032;52.542;13.440;2023-02-15T06:03:54;60.35;;;34.78;;
2053;SDS011;1032;52.542;13.440;2023-02-15T06:06:21;68.82;;;38.15;;
2053;SDS011;1032;52.542;13.440;2023-02-15T06:08:47;74.68;;;37.20;;
2053;SDS011;1032;52.542;13.440;2023-02-15T06:11:14;68.10;;;37.60;;
2053;SDS011;1032;52.542;13.440;2023-02-15T06:13:41;63.33;;;37.22;;
2053;SDS011;1032;52.542;13.440;2023-02-15T06:16:09;62.20;;;36.50;;
2053;SDS011;1032;52.542;13.440;2023-02-15T06:18:35;80.80;;;39.63;;
2053;SDS011;1032;52.542;13.440;2023-02-15T06:21:02;67.25;;;36.95;;
2053;SDS011;1032;52.542;13.440;2023-02-15T06:23:29;71.57;;;37.33;;
2053;SDS011;1032;52.542;13.440;2023-02-15T06:25:55;68.05;;;36.50;;
2053;SDS011;1032;52.542;13.440;2023-02-15T06:28:22;71.20;;;39.00;;
2053;SDS011;1032;52.542;13.440;2023-02-15T06:30:50;66.18;;;36.65;;
2053;SDS011;1032;52.542;13.440;2023-02-15T06:33:18;66.75;;;36.15;;
2053;SDS011;1032;52.542;13.440;2023-02-15T06:35:45;70.28;;;36.55;;
2053;SDS011;1032;52.542;13.440;2023-02-15T06:38:12;78.22;;;39.72;;
2053;SDS011;1032;52.542;13.440;2023-02-15T06:40:38;79.45;;;40.05;;
2053;SDS011;1032;52.542;13.440;2023-02-15T06:43:05;75.60;;;37.90;;
2053;SDS011;1032;52.542;13.440;2023-02-15T06:45:32;75.53;;;40.88;;
2053;SDS011;1032;52.542;13.440;2023-02-15T06:47:59;74.82;;;40.08;;
2053;SDS011;1032;52.542;13.440;2023-02-15T06:50:27;80.88;;;40.33;;
2053;SDS011;1032;52.542;13.440;2023-02-15T06:52:55;77.97;;;39.38;;
2053;SDS011;1032;52.542;13.440;2023-02-15T06:55:22;62.45;;;38.28;;
2053;SDS011;1032;52.542;13.440;2023-02-15T06:57:49;78.32;;;37.05;;
2053;SDS011;1032;52.542;13.440;2023-02-15T07:00:15;75.15;;;37.92;;
2053;SDS011;1032;52.542;13.440;2023-02-15T07:02:43;78.18;;;40.53;;
2053;SDS011;1032;52.542;13.440;2023-02-15T07:05:09;77.15;;;38.53;;
2053;SDS011;1032;52.542;13.440;2023-02-15T07:07:37;92.40;;;41.58;;
2053;SDS011;1032;52.542;13.440;2023-02-15T07:10:05;76.25;;;38.70;;
2053;SDS011;1032;52.542;13.440;2023-02-15T07:12:32;83.47;;;40.85;;
2053;SDS011;1032;52.542;13.440;2023-02-15T07:15:07;78.57;;;38.05;;
2053;SDS011;1032;52.542;13.440;2023-02-15T07:17:35;78.95;;;37.70;;
2053;SDS011;1032;52.542;13.440;2023-02-15T07:20:03;85.10;;;38.53;;
2053;SDS011;1032;52.542;13.440;2023-02-15T07:22:31;72.30;;;38.58;;
2053;SDS011;1032;52.542;13.440;2023-02-15T07:25:00;91.40;;;39.45;;
2053;SDS011;1032;52.542;13.440;2023-02-15T07:27:27;102.50;;;40.08;;
2053;SDS011;1032;52.542;13.440;2023-02-15T07:29:53;85.78;;;39.20;;
2053;SDS011;1032;52.542;13.440;2023-02-15T07:32:20;80.18;;;39.53;;
2053;SDS011;1032;52.542;13.440;2023-02-15T07:34:47;74.93;;;38.50;;
2053;SDS011;1032;52.542;13.440;2023-02-15T07:37:13;79.85;;;38.95;;
2053;SDS011;1032;52.542;13.440;2023-02-15T07:39:40;74.18;;;37.13;;
2053;SDS011;1032;52.542;13.440;2023-02-15T07:42:08;78.13;;;37.30;;
2053;SDS011;1032;52.542;13.440;2023-02-15T07:44:35;94.90;;;38.20;;
2053;SDS011;1032;52.542;13.440;2023-02-15T07:47:01;86.93;;;38.08;;
2053;SDS011;1032;52.542;13.440;2023-02-15T07:49:28;93.05;;;39.08;;
2053;SDS011;1032;52.542;13.440;2023-02-15T07:51:54;85.30;;;38.28;;
2053;SDS011;1032;52.542;13.440;2023-02-15T07:54:21;74.82;;;40.20;;
2053;SDS011;1032;52.542;13.440;2023-02-15T07:56:48;76.15;;;37.90;;
2053;SDS011;1032;52.542;13.440;2023-02-15T07:59:16;78.70;;;39.45;;
2053;SDS011;1032;52.542;13.440;2023-02-15T08:01:42;76.10;;;41.45;;
2053;SDS011;1032;52.542;13.440;2023-02-15T08:04:09;87.07;;;40.55;;
2053;SDS011;1032;52.542;13.440;2023-02-15T08:06:37;72.07;;;36.22;;
2053;SDS011;1032;52.542;13.440;2023-02-15T08:09:04;62.63;;;34.60;;
2053;SDS011;1032;52.542;13.440;2023-02-15T08:11:32;87.55;;;39.15;;
2053;SDS011;1032;52.542;13.440;2023-02-15T08:14:03;82.03;;;39.17;;
2053;SDS011;1032;52.542;13.440;2023-02-15T08:16:34;66.85;;;35.55;;
2053;SDS011;1032;52.542;13.440;2023-02-15T08:19:03;77.05;;;38.50;;
2053;SDS011;1032;52.542;13.440;2023-02-15T08:21:32;73.28;;;36.97;;
2053;SDS011;1032;52.542;13.440;2023-02-15T08:24:00;67.05;;;38.40;;
2053;SDS011;1032;52.542;13.440;2023-02-15T08:26:27;74.15;;;37.92;;
2053;SDS011;1032;52.542;13.440;2023-02-15T08:28:56;70.90;;;37.03;;
2053;SDS011;1032;52.542;13.440;2023-02-15T08:31:24;72.53;;;43.38;;
2053;SDS011;1032;52.542;13.440;2023-02-15T08:33:52;70.47;;;41.58;;
2053;SDS011;1032;52.542;13.440;2023-02-15T08:36:21;64.55;;;38.13;;
2053;SDS011;1032;52.542;13.440;2023-02-15T08:38:49;82.97;;;39.20;;
2053;SDS011;1032;52.542;13.440;2023-02-15T08:41:16;70.53;;;37.15;;
2053;SDS011;1032;52.542;13.440;2023-02-15T08:43:45;74.25;;;36.88;;
2053;SDS011;1032;52.542;13.440;2023-02-15T08:46:13;74.82;;;38.38;;
2053;SDS011;1032;52.542;13.440;2023-02-15T08:48:41;71.45;;;38.40;;
2053;SDS011;1032;52.542;13.440;2023-02-15T08:51:10;76.80;;;42.97;;
2053;SDS011;1032;52.542;13.440;2023-02-15T08:53:39;91.13;;;51.67;;
2053;SDS011;1032;52.542;13.440;2023-02-15T08:56:07;92.60;;;50.60;;
2053;SDS011;1032;52.542;13.440;2023-02-15T08:58:34;65.47;;;36.45;;
2053;SDS011;1032;52.542;13.440;2023-02-15T09:01:07;66.20;;;36.78;;
2053;SDS011;1032;52.542;13.440;2023-02-15T09:03:34;65.00;;;35.30;;
2053;SDS011;1032;52.542;13.440;2023-02-15T09:06:01;62.72;;;35.25;;
2053;SDS011;1032;52.542;13.440;2023-02-15T09:08:29;74.13;;;37.70;;
2053;SDS011;1032;52.542;13.440;2023-02-15T09:11:04;59.03;;;35.20;;
2053;SDS011;1032;52.542;13.440;2023-02-15T09:13:32;69.33;;;39.03;;
2053;SDS011;1032;52.542;13.440;2023-02-15T09:15:59;61.27;;;35.40;;
2053;SDS011;1032;52.542;13.440;2023-02-15T09:18:26;65.03;;;36.00;;
2053;SDS011;1032;52.542;13.440;2023-02-15T09:20:53;61.50;;;33.60;;
2053;SDS011;1032;52.542;13.440;2023-02-15T09:23:20;65.38;;;36.70;;
2053;SDS011;1032;52.542;13.440;2023-02-15T09:25:48;55.40;;;35.00;;
2053;SDS011;1032;52.542;13.440;2023-02-15T09:28:14;60.73;;;35.00;;
2053;SDS011;1032;52.542;13.440;2023-02-15T09:30:41;62.10;;;35.07;;
2053;SDS011;1032;52.542;13.440;2023-02-15T09:33:08;62.90;;;35.93;;
2053;SDS011;1032;52.542;13.440;2023-02-15T09:35:34;61.63;;;33.67;;
2053;SDS011;1032;52.542;13.440;2023-02-15T09:38:01;57.10;;;33.90;;
2053;SDS011;1032;52.542;13.440;2023-02-15T09:40:28;68.90;;;34.37;;
2053;SDS011;1032;52.542;13.440;2023-02-15T09:43:15;64.77;;;36.30;;
2053;SDS011;1032;52.542;13.440;2023-02-15T09:46:09;63.73;;;34.90;;
2053;SDS011;1032;52.542;13.440;2023-02-15T09:48:44;61.20;;;32.23;;
2053;SDS011;1032;52.542;13.440;2023-02-15T09:54:22;57.65;;;37.97;;
2053;SDS011;1032;52.542;13.440;2023-02-15T09:57:00;54.03;;;33.70;;
2053;SDS011;1032;52.542;13.440;2023-02-15T09:59:37;53.53;;;32.10;;
2053;SDS011;1032;52.542;13.440;2023-02-15T10:02:15;55.60;;;33.33;;
2053;SDS011;1032;52.542;13.440;2023-02-15T10:04:55;57.10;;;33.10;;
2053;SDS011;1032;52.542;13.440;2023-02-15T10:07:43;52.60;;;32.97;;
2053;SDS011;1032;52.542;13.440;2023-02-15T10:10:24;49.47;;;30.73;;
2053;SDS011;1032;52.542;13.440;2023-02-15T10:13:01;56.97;;;35.00;;
2053;SDS011;1032;52.542;13.440;2023-02-15T10:15:46;54.40;;;33.50;;
2053;SDS011;1032;52.542;13.440;2023-02-15T10:18:36;57.67;;;33.67;;
2053;SDS011;1032;52.542;13.440;2023-02-15T10:21:16;49.73;;;32.13;;
2053;SDS011;1032;52.542;13.440;2023-02-15T10:23:59;51.30;;;32.30;;
2053;SDS011;1032;52.542;13.440;2023-02-15T10:26:41;46.80;;;32.20;;
2053;SDS011;1032;52.542;13.440;2023-02-15T10:29:12;54.43;;;33.03;;
2053;SDS011;1032;52.542;13.440;2023-02-15T10:31:54;47.20;;;31.00;;
2053;SDS011;1032;52.542;13.440;2023-02-15T10:34:31;47.37;;;30.47;;
2053;SDS011;1032;52.542;13.440;2023-02-15T10:37:15;52.93;;;32.50;;
2053;SDS011;1032;52.542;13.440;2023-02-15T10:40:01;44.90;;;29.60;;
2053;SDS011;1032;52.542;13.440;2023-02-15T10:42:36;47.70;;;30.40;;
2053;SDS011;1032;52.542;13.440;2023-02-15T10:45:16;51.30;;;30.40;;
2053;SDS011;1032;52.542;13.440;2023-02-15T10:47:57;45.83;;;28.63;;
2053;SDS011;1032;52.542;13.440;2023-02-15T10:50:40;45.77;;;29.70;;
2053;SDS011;1032;52.542;13.440;2023-02-15T10:56:17;47.83;;;29.00;;
2053;SDS011;1032;52.542;13.440;2023-02-15T11:01:57;44.43;;;28.30;;
2053;SDS011;1032;52.542;13.440;2023-02-15T11:04:39;49.43;;;28.97;;
2053;SDS011;1032;52.542;13.440;2023-02-15T11:07:15;48.57;;;29.03;;
2053;SDS011;1032;52.542;13.440;2023-02-15T11:09:46;42.17;;;28.17;;
2053;SDS011;1032;52.542;13.440;2023-02-15T11:12:16;43.20;;;27.80;;
2053;SDS011;1032;52.542;13.440;2023-02-15T11:14:46;46.83;;;33.20;;
2053;SDS011;1032;52.542;13.440;2023-02-15T11:17:19;48.30;;;31.90;;
2053;SDS011;1032;52.542;13.440;2023-02-15T11:19:54;37.60;;;27.47;;
2053;SDS011;1032;52.542;13.440;2023-02-15T11:22:25;39.63;;;26.37;;
2053;SDS011;1032;52.542;13.440;2023-02-15T11:24:52;48.63;;;28.73;;
2053;SDS011;1032;52.542;13.440;2023-02-15T11:27:21;33.27;;;24.37;;
2053;SDS011;1032;52.542;13.440;2023-02-15T11:29:52;41.25;;;29.90;;
2053;SDS011;1032;52.542;13.440;2023-02-15T11:32:25;44.00;;;29.93;;
2053;SDS011;1032;52.542;13.440;2023-02-15T11:34:57;42.80;;;26.73;;
2053;SDS011;1032;52.542;13.440;2023-02-15T11:37:28;38.77;;;27.47;;
2053;SDS011;1032;52.542;13.440;2023-02-15T11:40:02;45.03;;;27.80;;
2053;SDS011;1032;52.542;13.440;2023-02-15T11:42:29;44.70;;;27.70;;
2053;SDS011;1032;52.542;13.440;2023-02-15T11:44:58;34.00;;;25.00;;
2053;SDS011;1032;52.542;13.440;2023-02-15T11:47:28;42.63;;;26.97;;
2053;SDS011;1032;52.542;13.440;2023-02-15T11:49:56;37.97;;;24.97;;
2053;SDS011;1032;52.542;13.440;2023-02-15T11:52:23;41.13;;;26.93;;
2053;SDS011;1032;52.542;13.440;2023-02-15T11:54:50;35.70;;;25.77;;
2053;SDS011;1032;52.542;13.440;2023-02-15T11:57:19;41.77;;;26.43;;
2053;SDS011;1032;52.542;13.440;2023-02-15T11:59:51;40.00;;;26.80;;
2053;SDS011;1032;52.542;13.440;2023-02-15T12:02:22;40.70;;;26.50;;
2053;SDS011;1032;52.542;13.440;2023-02-15T12:04:52;41.00;;;25.53;;
2053;SDS011;1032;52.542;13.440;2023-02-15T12:07:24;36.33;;;25.27;;
2053;SDS011;1032;52.542;13.440;2023-02-15T12:09:55;38.23;;;26.20;;
2053;SDS011;1032;52.542;13.440;2023-02-15T12:12:29;35.53;;;25.07;;
2053;SDS011;1032;52.542;13.440;2023-02-15T12:14:58;34.50;;;25.30;;
2053;SDS011;1032;52.542;13.440;2023-02-15T12:17:26;39.10;;;26.33;;
2053;SDS011;1032;52.542;13.440;2023-02-15T12:19:56;38.70;;;26.50;;
2053;SDS011;1032;52.542;13.440;2023-02-15T12:22:27;40.30;;;26.70;;
2053;SDS011;1032;52.542;13.440;2023-02-15T12:24:56;42.85;;;28.33;;
2053;SDS011;1032;52.542;13.440;2023-02-15T12:27:26;34.37;;;26.17;;
2053;SDS011;1032;52.542;13.440;2023-02-15T12:29:56;35.77;;;24.93;;
2053;SDS011;1032;52.542;13.440;2023-02-15T12:32:26;41.73;;;25.90;;
2053;SDS011;1032;52.542;13.440;2023-02-15T12:34:59;33.40;;;26.43;;
2053;SDS011;1032;52.542;13.440;2023-02-15T12:37:29;36.90;;;25.40;;
2053;SDS011;1032;52.542;13.440;2023-02-15T12:39:57;41.73;;;27.07;;
2053;SDS011;1032;52.542;13.440;2023-02-15T12:42:26;31.90;;;24.43;;
2053;SDS011;1032;52.542;13.440;2023-02-15T12:44:55;38.70;;;25.57;;
2053;SDS011;1032;52.542;13.440;2023-02-15T12:47:26;40.23;;;26.03;;
2053;SDS011;1032;52.542;13.440;2023-02-15T12:50:06;38.87;;;26.20;;
2053;SDS011;1032;52.542;13.440;2023-02-15T12:52:41;38.40;;;25.13;;
2053;SDS011;1032;52.542;13.440;2023-02-15T12:55:10;34.03;;;24.37;;
2053;SDS011;1032;52.542;13.440;2023-02-15T12:57:44;32.03;;;23.40;;
2053;SDS011;1032;52.542;13.440;2023-02-15T13:00:25;39.70;;;24.90;;
2053;SDS011;1032;52.542;13.440;2023-02-15T13:02:54;34.63;;;25.43;;
2053;SDS011;1032;52.542;13.440;2023-02-15T13:05:25;33.50;;;23.20;;
2053;SDS011;1032;52.542;13.440;2023-02-15T13:07:56;34.72;;;25.95;;
2053;SDS011;1032;52.542;13.440;2023-02-15T13:10:26;35.27;;;24.97;;
2053;SDS011;1032;52.542;13.440;2023-02-15T13:12:54;34.00;;;25.17;;
2053;SDS011;1032;52.542;13.440;2023-02-15T13:15:23;35.47;;;25.30;;
2053;SDS011;1032;52.542;13.440;2023-02-15T13:17:54;39.90;;;26.57;;
2053;SDS011;1032;52.542;13.440;2023-02-15T13:20:22;35.43;;;23.30;;
2053;SDS011;1032;52.542;13.440;2023-02-15T13:22:52;36.75;;;25.70;;
2053;SDS011;1032;52.542;13.440;2023-02-15T13:25:23;35.13;;;24.43;;
2053;SDS011;1032;52.542;13.440;2023-02-15T13:27:53;35.57;;;26.43;;
2053;SDS011;1032;52.542;13.440;2023-02-15T13:30:23;43.50;;;31.33;;
2053;SDS011;1032;52.542;13.440;2023-02-15T13:32:52;36.17;;;23.40;;
2053;SDS011;1032;52.542;13.440;2023-02-15T13:35:23;33.40;;;25.10;;
2053;SDS011;1032;52.542;13.440;2023-02-15T13:38:06;29.70;;;22.93;;
2053;SDS011;1032;52.542;13.440;2023-02-15T13:40:41;35.10;;;25.57;;
2053;SDS011;1032;52.542;13.440;2023-02-15T13:43:17;35.93;;;24.07;;
2053;SDS011;1032;52.542;13.440;2023-02-15T13:45:55;30.33;;;23.40;;
2053;SDS011;1032;52.542;13.440;2023-02-15T13:48:35;33.73;;;24.67;;
2053;SDS011;1032;52.542;13.440;2023-02-15T13:51:13;33.47;;;25.13;;
2053;SDS011;1032;52.542;13.440;2023-02-15T13:53:50;28.37;;;21.60;;
2053;SDS011;1032;52.542;13.440;2023-02-15T13:56:29;35.30;;;24.13;;
2053;SDS011;1032;52.542;13.440;2023-02-15T13:59:09;36.67;;;22.97;;
2053;SDS011;1032;52.542;13.440;2023-02-15T14:02:04;32.63;;;24.43;;
2053;SDS011;1032;52.542;13.440;2023-02-15T14:04:52;33.17;;;23.90;;
2053;SDS011;1032;52.542;13.440;2023-02-15T14:07:51;34.33;;;24.23;;
2053;SDS011;1032;52.542;13.440;2023-02-15T14:10:39;38.50;;;23.70;;
2053;SDS011;1032;52.542;13.440;2023-02-15T14:13:33;34.40;;;23.50;;
2053;SDS011;1032;52.542;13.440;2023-02-15T14:16:19;31.53;;;22.40;;
2053;SDS011;1032;52.542;13.440;2023-02-15T14:18:59;32.53;;;22.70;;
2053;SDS011;1032;52.542;13.440;2023-02-15T14:21:37;32.65;;;24.85;;
2053;SDS011;1032;52.542;13.440;2023-02-15T14:24:15;39.60;;;25.00;;
2053;SDS011;1032;52.542;13.440;2023-02-15T14:26:52;34.03;;;22.87;;
2053;SDS011;1032;52.542;13.440;2023-02-15T14:29:33;35.83;;;22.57;;
2053;SDS011;1032;52.542;13.440;2023-02-15T14:32:13;37.40;;;23.90;;
2053;SDS011;1032;52.542;13.440;2023-02-15T14:34:46;32.60;;;22.00;;
2053;SDS011;1032;52.542;13.440;2023-02-15T14:37:19;30.87;;;20.70;;
2053;SDS011;1032;52.542;13.440;2023-02-15T14:39:56;31.53;;;23.20;;
2053;SDS011;1032;52.542;13.440;2023-02-15T14:42:47;40.80;;;24.30;;
2053;SDS011;1032;52.542;13.440;2023-02-15T14:45:21;35.73;;;22.37;;
2053;SDS011;1032;52.542;13.440;2023-02-15T14:47:55;31.13;;;21.50;;
2053;SDS011;1032;52.542;13.440;2023-02-15T14:50:37;34.77;;;22.00;;
2053;SDS011;1032;52.542;13.440;2023-02-15T14:53:15;34.67;;;23.10;;
2053;SDS011;1032;52.542;13.440;2023-02-15T14:58:54;33.10;;;24.03;;
2053;SDS011;1032;52.542;13.440;2023-02-15T15:01:26;84.10;;;62.30;;
2053;SDS011;1032;52.542;13.440;2023-02-15T15:03:56;63.77;;;45.23;;
2053;SDS011;1032;52.542;13.440;2023-02-15T15:06:26;36.00;;;24.60;;
2053;SDS011;1032;52.542;13.440;2023-02-15T15:08:55;33.70;;;25.67;;
2053;SDS011;1032;52.542;13.440;2023-02-15T15:11:38;33.23;;;23.80;;